sensor_id;sensor_type;location;lat;lon;timestamp;P1;durP1;ratioP1;P2;durP2;ratioP2
76597;SDS011;65486;53.144;18.134;2024-02-26T00:02:00;28.90;;;14.30;;
76597;SDS011;65486;53.144;18.134;2024-02-26T00:04:28;23.50;;;11.40;;
76597;SDS011;65486;53.144;18.134;2024-02-26T00:06:54;30.40;;;12.90;;
76597;SDS011;65486;53.144;18.134;2024-02-26T00:09:24;26.50;;;13.10;;
76597;SDS011;65486;53.144;18.134;2024-02-26T00:11:51;29.90;;;14.40;;
76597;SDS011;65486;53.144;18.134;2024-02-26T00:14:18;29.10;;;13.40;;
76597;SDS011;65486;53.144;18.134;2024-02-26T00:16:45;24.40;;;11.00;;
76597;SDS011;65486;53.144;18.134;2024-02-26T00:19:14;25.10;;;11.90;;
76597;SDS011;65486;53.144;18.134;2024-02-26T00:21:42;25.90;;;12.50;;
76597;SDS011;65486;53.144;18.134;2024-02-26T00:24:08;30.30;;;14.20;;
76597;SDS011;65486;53.144;18.134;2024-02-26T00:26:35;26.90;;;12.60;;
76597;SDS011;65486;53.144;18.134;2024-02-26T00:29:01;27.50;;;13.10;;
76597;SDS011;65486;53.144;18.134;2024-02-26T00:31:28;22.30;;;10.60;;
76597;SDS011;65486;53.144;18.134;2024-02-26T00:33:55;23.60;;;12.30;;
76597;SDS011;65486;53.144;18.134;2024-02-26T00:36:21;25.80;;;12.30;;
76597;SDS011;65486;53.144;18.134;2024-02-26T00:38:47;20.90;;;10.80;;
76597;SDS011;65486;53.144;18.134;2024-02-26T00:41:18;22.60;;;11.60;;
76597;SDS011;65486;53.144;18.134;2024-02-26T00:43:45;30.00;;;13.90;;
76597;SDS011;65486;53.144;18.134;2024-02-26T00:46:13;26.90;;;12.90;;
76597;SDS011;65486;53.144;18.134;2024-02-26T00:48:39;30.80;;;14.70;;
76597;SDS011;65486;53.144;18.134;2024-02-26T00:51:07;18.10;;;9.70;;
76597;SDS011;65486;53.144;18.134;2024-02-26T00:53:34;22.90;;;11.20;;
76597;SDS011;65486;53.144;18.134;2024-02-26T00:56:04;21.90;;;10.60;;
76597;SDS011;65486;53.144;18.134;2024-02-26T00:58:31;31.10;;;14.30;;
76597;SDS011;65486;53.144;18.134;2024-02-26T01:00:59;37.60;;;16.90;;
76597;SDS011;65486;53.144;18.134;2024-02-26T01:03:26;27.10;;;13.60;;
76597;SDS011;65486;53.144;18.134;2024-02-26T01:05:52;35.10;;;18.30;;
76597;SDS011;65486;53.144;18.134;2024-02-26T01:08:21;26.30;;;13.30;;
76597;SDS011;65486;53.144;18.134;2024-02-26T01:10:47;29.40;;;14.30;;
76597;SDS011;65486;53.144;18.134;2024-02-26T01:13:14;46.00;;;22.40;;
76597;SDS011;65486;53.144;18.134;2024-02-26T01:15:42;30.30;;;15.20;;
76597;SDS011;65486;53.144;18.134;2024-02-26T01:18:09;26.80;;;12.80;;
76597;SDS011;65486;53.144;18.134;2024-02-26T01:20:38;31.40;;;14.80;;
76597;SDS011;65486;53.144;18.134;2024-02-26T01:23:05;27.20;;;13.70;;
76597;SDS011;65486;53.144;18.134;2024-02-26T01:25:32;26.60;;;13.10;;
76597;SDS011;65486;53.144;18.134;2024-02-26T01:27:59;28.90;;;14.20;;
76597;SDS011;65486;53.144;18.134;2024-02-26T01:30:27;26.90;;;13.20;;
76597;SDS011;65486;53.144;18.134;2024-02-26T01:32:53;27.40;;;12.50;;
76597;SDS011;65486;53.144;18.134;2024-02-26T01:35:19;25.50;;;12.60;;
76597;SDS011;65486;53.144;18.134;2024-02-26T01:37:55;26.60;;;12.50;;
76597;SDS011;65486;53.144;18.134;2024-02-26T01:40:26;30.80;;;14.20;;
76597;SDS011;65486;53.144;18.134;2024-02-26T01:42:54;26.20;;;12.00;;
76597;SDS011;65486;53.144;18.134;2024-02-26T01:45:21;37.10;;;15.20;;
76597;SDS011;65486;53.144;18.134;2024-02-26T01:47:50;43.70;;;17.40;;
76597;SDS011;65486;53.144;18.134;2024-02-26T01:50:18;39.60;;;18.30;;
76597;SDS011;65486;53.144;18.134;2024-02-26T01:52:46;34.20;;;14.70;;
76597;SDS011;65486;53.144;18.134;2024-02-26T01:55:17;38.50;;;15.70;;
76597;SDS011;65486;53.144;18.134;2024-02-26T01:57:45;33.70;;;15.00;;
76597;SDS011;65486;53.144;18.134;2024-02-26T02:00:14;28.90;;;14.10;;
76597;SDS011;65486;53.144;18.134;2024-02-26T02:02:42;28.20;;;13.70;;
76597;SDS011;65486;53.144;18.134;2024-02-26T02:05:10;32.70;;;14.80;;
76597;SDS011;65486;53.144;18.134;2024-02-26T02:07:41;33.60;;;14.60;;
76597;SDS011;65486;53.144;18.134;2024-02-26T02:10:09;29.10;;;13.30;;
76597;SDS011;65486;53.144;18.134;2024-02-26T02:12:36;33.70;;;15.40;;
76597;SDS011;65486;53.144;18.134;2024-02-26T02:15:06;28.30;;;13.00;;
76597;SDS011;65486;53.144;18.134;2024-02-26T02:17:32;30.40;;;14.70;;
76597;SDS011;65486;53.144;18.134;2024-02-26T02:19:59;31.20;;;14.70;;
76597;SDS011;65486;53.144;18.134;2024-02-26T02:22:27;32.20;;;14.20;;
76597;SDS011;65486;53.144;18.134;2024-02-26T02:24:55;32.70;;;14.50;;
76597;SDS011;65486;53.144;18.134;2024-02-26T02:27:22;34.40;;;14.30;;
76597;SDS011;65486;53.144;18.134;2024-02-26T02:29:49;44.20;;;18.20;;
76597;SDS011;65486;53.144;18.134;2024-02-26T02:32:16;36.90;;;15.90;;
76597;SDS011;65486;53.144;18.134;2024-02-26T02:34:44;32.50;;;14.10;;
76597;SDS011;65486;53.144;18.134;2024-02-26T02:37:11;29.90;;;13.80;;
76597;SDS011;65486;53.144;18.134;2024-02-26T02:39:38;28.70;;;13.60;;
76597;SDS011;65486;53.144;18.134;2024-02-26T02:42:04;32.10;;;13.80;;
76597;SDS011;65486;53.144;18.134;2024-02-26T02:44:31;31.70;;;13.10;;
76597;SDS011;65486;53.144;18.134;2024-02-26T02:46:57;28.10;;;12.20;;
76597;SDS011;65486;53.144;18.134;2024-02-26T02:49:24;43.40;;;15.60;;
76597;SDS011;65486;53.144;18.134;2024-02-26T02:51:51;31.30;;;14.60;;
76597;SDS011;65486;53.144;18.134;2024-02-26T02:54:20;40.30;;;17.90;;
76597;SDS011;65486;53.144;18.134;2024-02-26T02:56:46;32.60;;;12.80;;
76597;SDS011;65486;53.144;18.134;2024-02-26T02:59:14;33.80;;;13.10;;
76597;SDS011;65486;53.144;18.134;2024-02-26T03:01:40;55.10;;;15.60;;
76597;SDS011;65486;53.144;18.134;2024-02-26T03:04:06;32.00;;;13.70;;
76597;SDS011;65486;53.144;18.134;2024-02-26T03:06:33;42.40;;;16.90;;
76597;SDS011;65486;53.144;18.134;2024-02-26T03:08:59;25.30;;;10.90;;
76597;SDS011;65486;53.144;18.134;2024-02-26T03:11:27;33.20;;;13.80;;
76597;SDS011;65486;53.144;18.134;2024-02-26T03:13:54;35.50;;;15.50;;
76597;SDS011;65486;53.144;18.134;2024-02-26T03:16:21;28.00;;;12.60;;
76597;SDS011;65486;53.144;18.134;2024-02-26T03:18:47;26.10;;;11.60;;
76597;SDS011;65486;53.144;18.134;2024-02-26T03:21:13;23.90;;;11.40;;
76597;SDS011;65486;53.144;18.134;2024-02-26T03:23:40;29.90;;;12.90;;
76597;SDS011;65486;53.144;18.134;2024-02-26T03:26:06;33.40;;;15.40;;
76597;SDS011;65486;53.144;18.134;2024-02-26T03:28:36;26.10;;;12.10;;
76597;SDS011;65486;53.144;18.134;2024-02-26T03:31:02;32.60;;;13.60;;
76597;SDS011;65486;53.144;18.134;2024-02-26T03:33:29;34.60;;;14.30;;
76597;SDS011;65486;53.144;18.134;2024-02-26T03:35:56;31.80;;;13.60;;
76597;SDS011;65486;53.144;18.134;2024-02-26T03:38:22;46.70;;;17.40;;
76597;SDS011;65486;53.144;18.134;2024-02-26T03:40:49;31.80;;;14.80;;
76597;SDS011;65486;53.144;18.134;2024-02-26T03:43:17;41.80;;;15.80;;
76597;SDS011;65486;53.144;18.134;2024-02-26T03:45:43;42.50;;;16.20;;
76597;SDS011;65486;53.144;18.134;2024-02-26T03:48:09;35.60;;;13.70;;
76597;SDS011;65486;53.144;18.134;2024-02-26T03:50:37;30.50;;;12.60;;
76597;SDS011;65486;53.144;18.134;2024-02-26T03:53:04;34.10;;;12.30;;
76597;SDS011;65486;53.144;18.134;2024-02-26T03:55:34;55.20;;;20.30;;
76597;SDS011;65486;53.144;18.134;2024-02-26T03:58:06;38.80;;;14.70;;
76597;SDS011;65486;53.144;18.134;2024-02-26T04:00:42;33.90;;;12.10;;
76597;SDS011;65486;53.144;18.134;2024-02-26T04:03:08;22.50;;;9.70;;
76597;SDS011;65486;53.144;18.134;2024-02-26T04:05:35;44.20;;;13.40;;
76597;SDS011;65486;53.144;18.134;2024-02-26T04:08:04;40.00;;;16.30;;
76597;SDS011;65486;53.144;18.134;2024-02-26T04:10:33;46.00;;;16.50;;
76597;SDS011;65486;53.144;18.134;2024-02-26T04:13:07;41.10;;;13.40;;
76597;SDS011;65486;53.144;18.134;2024-02-26T04:15:34;34.90;;;12.40;;
76597;SDS011;65486;53.144;18.134;2024-02-26T04:18:04;38.50;;;14.00;;
76597;SDS011;65486;53.144;18.134;2024-02-26T04:20:31;30.60;;;13.20;;
76597;SDS011;65486;53.144;18.134;2024-02-26T04:22:58;28.60;;;11.30;;
76597;SDS011;65486;53.144;18.134;2024-02-26T04:25:27;31.70;;;12.60;;
76597;SDS011;65486;53.144;18.134;2024-02-26T04:27:54;29.70;;;12.00;;
76597;SDS011;65486;53.144;18.134;2024-02-26T04:30:21;35.50;;;13.90;;
76597;SDS011;65486;53.144;18.134;2024-02-26T04:32:48;35.20;;;13.40;;
76597;SDS011;65486;53.144;18.134;2024-02-26T04:35:17;30.60;;;13.30;;
76597;SDS011;65486;53.144;18.134;2024-02-26T04:37:47;24.60;;;9.10;;
76597;SDS011;65486;53.144;18.134;2024-02-26T04:40:16;41.30;;;16.80;;
76597;SDS011;65486;53.144;18.134;2024-02-26T04:42:43;41.70;;;13.80;;
76597;SDS011;65486;53.144;18.134;2024-02-26T04:45:10;29.30;;;12.80;;
76597;SDS011;65486;53.144;18.134;2024-02-26T04:47:37;46.10;;;14.70;;
76597;SDS011;65486;53.144;18.134;2024-02-26T04:50:03;39.90;;;17.00;;
76597;SDS011;65486;53.144;18.134;2024-02-26T04:52:30;31.30;;;12.20;;
76597;SDS011;65486;53.144;18.134;2024-02-26T04:54:58;27.60;;;12.00;;
76597;SDS011;65486;53.144;18.134;2024-02-26T04:57:26;41.50;;;15.70;;
76597;SDS011;65486;53.144;18.134;2024-02-26T04:59:53;34.00;;;14.10;;
76597;SDS011;65486;53.144;18.134;2024-02-26T05:02:21;30.00;;;11.90;;
76597;SDS011;65486;53.144;18.134;2024-02-26T05:04:48;29.90;;;12.20;;
76597;SDS011;65486;53.144;18.134;2024-02-26T05:07:14;27.20;;;11.40;;
76597;SDS011;65486;53.144;18.134;2024-02-26T05:09:48;34.90;;;13.80;;
76597;SDS011;65486;53.144;18.134;2024-02-26T05:12:15;25.80;;;11.30;;
76597;SDS011;65486;53.144;18.134;2024-02-26T05:14:45;35.00;;;14.40;;
76597;SDS011;65486;53.144;18.134;2024-02-26T05:17:14;27.20;;;11.30;;
76597;SDS011;65486;53.144;18.134;2024-02-26T05:19:43;31.60;;;15.20;;
76597;SDS011;65486;53.144;18.134;2024-02-26T05:22:12;34.40;;;15.80;;
76597;SDS011;65486;53.144;18.134;2024-02-26T05:24:39;51.50;;;23.10;;
76597;SDS011;65486;53.144;18.134;2024-02-26T05:27:06;26.40;;;12.40;;
76597;SDS011;65486;53.144;18.134;2024-02-26T05:29:33;28.20;;;13.60;;
76597;SDS011;65486;53.144;18.134;2024-02-26T05:32:01;26.30;;;12.30;;
76597;SDS011;65486;53.144;18.134;2024-02-26T05:34:31;33.50;;;13.00;;
76597;SDS011;65486;53.144;18.134;2024-02-26T05:37:00;46.80;;;18.20;;
76597;SDS011;65486;53.144;18.134;2024-02-26T05:39:28;54.00;;;22.60;;
76597;SDS011;65486;53.144;18.134;2024-02-26T05:41:54;53.10;;;25.10;;
76597;SDS011;65486;53.144;18.134;2024-02-26T05:44:26;52.50;;;24.00;;
76597;SDS011;65486;53.144;18.134;2024-02-26T05:47:07;34.60;;;16.70;;
76597;SDS011;65486;53.144;18.134;2024-02-26T05:49:38;35.80;;;15.80;;
76597;SDS011;65486;53.144;18.134;2024-02-26T05:52:05;36.30;;;16.10;;
76597;SDS011;65486;53.144;18.134;2024-02-26T05:54:36;23.80;;;12.00;;
76597;SDS011;65486;53.144;18.134;2024-02-26T05:57:05;30.20;;;14.20;;
76597;SDS011;65486;53.144;18.134;2024-02-26T05:59:34;48.90;;;22.50;;
76597;SDS011;65486;53.144;18.134;2024-02-26T06:02:21;22.60;;;10.40;;
76597;SDS011;65486;53.144;18.134;2024-02-26T06:04:48;36.80;;;17.90;;
76597;SDS011;65486;53.144;18.134;2024-02-26T06:07:14;23.70;;;11.70;;
76597;SDS011;65486;53.144;18.134;2024-02-26T06:09:41;23.80;;;11.50;;
76597;SDS011;65486;53.144;18.134;2024-02-26T06:12:10;32.90;;;13.50;;
76597;SDS011;65486;53.144;18.134;2024-02-26T06:14:41;29.40;;;12.90;;
76597;SDS011;65486;53.144;18.134;2024-02-26T06:17:09;35.10;;;14.60;;
76597;SDS011;65486;53.144;18.134;2024-02-26T06:19:36;32.80;;;14.00;;
76597;SDS011;65486;53.144;18.134;2024-02-26T06:22:05;29.10;;;11.20;;
76597;SDS011;65486;53.144;18.134;2024-02-26T06:24:31;31.80;;;13.00;;
76597;SDS011;65486;53.144;18.134;2024-02-26T06:27:01;25.80;;;13.40;;
76597;SDS011;65486;53.144;18.134;2024-02-26T06:29:30;23.00;;;11.20;;
76597;SDS011;65486;53.144;18.134;2024-02-26T06:32:03;24.40;;;10.50;;
76597;SDS011;65486;53.144;18.134;2024-02-26T06:34:33;24.40;;;12.50;;
76597;SDS011;65486;53.144;18.134;2024-02-26T06:37:09;24.90;;;13.10;;
76597;SDS011;65486;53.144;18.134;2024-02-26T06:39:36;32.10;;;15.10;;
76597;SDS011;65486;53.144;18.134;2024-02-26T06:42:08;25.80;;;13.50;;
76597;SDS011;65486;53.144;18.134;2024-02-26T06:44:35;29.20;;;13.50;;
76597;SDS011;65486;53.144;18.134;2024-02-26T06:47:01;41.60;;;17.50;;
76597;SDS011;65486;53.144;18.134;2024-02-26T06:49:28;42.50;;;19.10;;
76597;SDS011;65486;53.144;18.134;2024-02-26T06:51:55;31.30;;;14.90;;
76597;SDS011;65486;53.144;18.134;2024-02-26T06:54:22;41.90;;;17.00;;
76597;SDS011;65486;53.144;18.134;2024-02-26T06:56:56;53.10;;;24.60;;
76597;SDS011;65486;53.144;18.134;2024-02-26T06:59:25;27.40;;;13.00;;
76597;SDS011;65486;53.144;18.134;2024-02-26T07:01:58;30.30;;;15.30;;
76597;SDS011;65486;53.144;18.134;2024-02-26T07:04:25;22.00;;;10.90;;
76597;SDS011;65486;53.144;18.134;2024-02-26T07:06:52;27.10;;;11.60;;
76597;SDS011;65486;53.144;18.134;2024-02-26T07:09:19;22.80;;;10.60;;
76597;SDS011;65486;53.144;18.134;2024-02-26T07:11:49;36.60;;;16.60;;
76597;SDS011;65486;53.144;18.134;2024-02-26T07:14:16;53.50;;;24.20;;
76597;SDS011;65486;53.144;18.134;2024-02-26T07:16:42;58.70;;;25.40;;
76597;SDS011;65486;53.144;18.134;2024-02-26T07:19:09;36.70;;;18.40;;
76597;SDS011;65486;53.144;18.134;2024-02-26T07:21:37;36.20;;;17.50;;
76597;SDS011;65486;53.144;18.134;2024-02-26T07:24:05;28.10;;;13.50;;
76597;SDS011;65486;53.144;18.134;2024-02-26T07:26:33;34.90;;;16.40;;
76597;SDS011;65486;53.144;18.134;2024-02-26T07:28:59;23.80;;;13.00;;
76597;SDS011;65486;53.144;18.134;2024-02-26T07:31:26;44.70;;;19.00;;
76597;SDS011;65486;53.144;18.134;2024-02-26T07:33:54;34.20;;;18.30;;
76597;SDS011;65486;53.144;18.134;2024-02-26T07:36:20;21.80;;;11.10;;
76597;SDS011;65486;53.144;18.134;2024-02-26T07:38:48;32.20;;;15.90;;
76597;SDS011;65486;53.144;18.134;2024-02-26T07:41:18;24.10;;;12.70;;
76597;SDS011;65486;53.144;18.134;2024-02-26T07:43:44;37.20;;;18.60;;
76597;SDS011;65486;53.144;18.134;2024-02-26T07:46:12;28.00;;;14.90;;
76597;SDS011;65486;53.144;18.134;2024-02-26T07:48:39;29.60;;;14.00;;
76597;SDS011;65486;53.144;18.134;2024-02-26T07:51:07;29.90;;;16.50;;
76597;SDS011;65486;53.144;18.134;2024-02-26T07:53:33;38.10;;;17.60;;
76597;SDS011;65486;53.144;18.134;2024-02-26T07:56:00;31.90;;;16.30;;
76597;SDS011;65486;53.144;18.134;2024-02-26T07:58:27;39.20;;;19.80;;
76597;SDS011;65486;53.144;18.134;2024-02-26T08:00:54;50.40;;;23.00;;
76597;SDS011;65486;53.144;18.134;2024-02-26T08:03:27;39.80;;;22.20;;
76597;SDS011;65486;53.144;18.134;2024-02-26T08:05:54;21.60;;;10.80;;
76597;SDS011;65486;53.144;18.134;2024-02-26T08:08:21;36.20;;;19.50;;
76597;SDS011;65486;53.144;18.134;2024-02-26T08:10:47;34.00;;;18.50;;
76597;SDS011;65486;53.144;18.134;2024-02-26T08:13:14;31.10;;;18.00;;
76597;SDS011;65486;53.144;18.134;2024-02-26T08:15:41;27.60;;;14.50;;
76597;SDS011;65486;53.144;18.134;2024-02-26T08:18:09;25.50;;;14.80;;
76597;SDS011;65486;53.144;18.134;2024-02-26T08:20:36;30.00;;;15.80;;
76597;SDS011;65486;53.144;18.134;2024-02-26T08:23:04;40.80;;;23.40;;
76597;SDS011;65486;53.144;18.134;2024-02-26T08:25:31;30.30;;;16.80;;
76597;SDS011;65486;53.144;18.134;2024-02-26T08:28:00;34.60;;;19.20;;
76597;SDS011;65486;53.144;18.134;2024-02-26T08:30:28;41.00;;;22.00;;
76597;SDS011;65486;53.144;18.134;2024-02-26T08:32:56;28.40;;;16.80;;
76597;SDS011;65486;53.144;18.134;2024-02-26T08:35:23;33.30;;;19.00;;
76597;SDS011;65486;53.144;18.134;2024-02-26T08:37:51;31.50;;;18.80;;
76597;SDS011;65486;53.144;18.134;2024-02-26T08:40:19;32.00;;;19.70;;
76597;SDS011;65486;53.144;18.134;2024-02-26T08:42:45;34.80;;;21.70;;
76597;SDS011;65486;53.144;18.134;2024-02-26T08:45:11;36.50;;;20.00;;
76597;SDS011;65486;53.144;18.134;2024-02-26T08:47:41;35.90;;;21.30;;
76597;SDS011;65486;53.144;18.134;2024-02-26T08:50:08;36.40;;;21.10;;
76597;SDS011;65486;53.144;18.134;2024-02-26T08:52:36;35.40;;;21.00;;
76597;SDS011;65486;53.144;18.134;2024-02-26T08:55:03;32.40;;;19.70;;
76597;SDS011;65486;53.144;18.134;2024-02-26T08:57:31;41.00;;;24.30;;
76597;SDS011;65486;53.144;18.134;2024-02-26T09:00:00;33.50;;;20.60;;
76597;SDS011;65486;53.144;18.134;2024-02-26T09:02:28;35.70;;;21.10;;
76597;SDS011;65486;53.144;18.134;2024-02-26T09:04:56;39.00;;;23.10;;
76597;SDS011;65486;53.144;18.134;2024-02-26T09:07:23;34.00;;;21.60;;
76597;SDS011;65486;53.144;18.134;2024-02-26T09:09:53;32.70;;;19.50;;
76597;SDS011;65486;53.144;18.134;2024-02-26T09:12:20;38.90;;;22.50;;
76597;SDS011;65486;53.144;18.134;2024-02-26T09:14:50;43.60;;;25.50;;
76597;SDS011;65486;53.144;18.134;2024-02-26T09:17:16;33.10;;;20.90;;
76597;SDS011;65486;53.144;18.134;2024-02-26T09:19:43;41.30;;;24.50;;
76597;SDS011;65486;53.144;18.134;2024-02-26T09:22:11;38.80;;;24.50;;
76597;SDS011;65486;53.144;18.134;2024-02-26T09:24:37;39.40;;;23.20;;
76597;SDS011;65486;53.144;18.134;2024-02-26T09:27:07;48.00;;;29.20;;
76597;SDS011;65486;53.144;18.134;2024-02-26T09:29:35;42.00;;;25.70;;
76597;SDS011;65486;53.144;18.134;2024-02-26T09:32:03;41.20;;;27.00;;
76597;SDS011;65486;53.144;18.134;2024-02-26T09:34:31;39.20;;;25.90;;
76597;SDS011;65486;53.144;18.134;2024-02-26T09:36:57;36.30;;;24.20;;
76597;SDS011;65486;53.144;18.134;2024-02-26T09:39:25;43.10;;;28.00;;
76597;SDS011;65486;53.144;18.134;2024-02-26T09:41:53;33.60;;;21.20;;
76597;SDS011;65486;53.144;18.134;2024-02-26T09:44:21;39.70;;;25.30;;
76597;SDS011;65486;53.144;18.134;2024-02-26T09:46:52;39.70;;;25.60;;
76597;SDS011;65486;53.144;18.134;2024-02-26T09:49:21;37.80;;;25.20;;
76597;SDS011;65486;53.144;18.134;2024-02-26T09:51:50;32.70;;;22.40;;
76597;SDS011;65486;53.144;18.134;2024-02-26T09:54:20;30.50;;;21.50;;
76597;SDS011;65486;53.144;18.134;2024-02-26T09:56:50;36.50;;;24.40;;
76597;SDS011;65486;53.144;18.134;2024-02-26T09:59:22;38.10;;;25.60;;
76597;SDS011;65486;53.144;18.134;2024-02-26T10:01:59;32.30;;;22.90;;
76597;SDS011;65486;53.144;18.134;2024-02-26T10:04:31;34.50;;;23.20;;
76597;SDS011;65486;53.144;18.134;2024-02-26T10:07:21;36.00;;;24.20;;
76597;SDS011;65486;53.144;18.134;2024-02-26T10:09:49;36.40;;;26.10;;
76597;SDS011;65486;53.144;18.134;2024-02-26T10:12:16;36.70;;;24.60;;
76597;SDS011;65486;53.144;18.134;2024-02-26T10:14:46;34.40;;;22.80;;
76597;SDS011;65486;53.144;18.134;2024-02-26T10:17:13;38.50;;;27.80;;
76597;SDS011;65486;53.144;18.134;2024-02-26T10:19:43;38.60;;;26.40;;
76597;SDS011;65486;53.144;18.134;2024-02-26T10:22:13;36.90;;;27.00;;
76597;SDS011;65486;53.144;18.134;2024-02-26T10:24:39;34.30;;;24.10;;
76597;SDS011;65486;53.144;18.134;2024-02-26T10:27:07;41.40;;;28.90;;
76597;SDS011;65486;53.144;18.134;2024-02-26T10:29:48;41.10;;;27.70;;
76597;SDS011;65486;53.144;18.134;2024-02-26T10:32:15;39.70;;;27.00;;
76597;SDS011;65486;53.144;18.134;2024-02-26T10:34:44;38.90;;;26.40;;
76597;SDS011;65486;53.144;18.134;2024-02-26T10:37:11;35.60;;;25.40;;
76597;SDS011;65486;53.144;18.134;2024-02-26T10:39:46;38.80;;;26.70;;
76597;SDS011;65486;53.144;18.134;2024-02-26T10:42:13;40.50;;;28.70;;
76597;SDS011;65486;53.144;18.134;2024-02-26T10:44:42;44.50;;;29.10;;
76597;SDS011;65486;53.144;18.134;2024-02-26T10:47:09;43.50;;;29.30;;
76597;SDS011;65486;53.144;18.134;2024-02-26T10:49:36;43.30;;;28.20;;
76597;SDS011;65486;53.144;18.134;2024-02-26T10:52:03;46.00;;;30.50;;
76597;SDS011;65486;53.144;18.134;2024-02-26T10:54:33;47.00;;;30.20;;
76597;SDS011;65486;53.144;18.134;2024-02-26T10:57:02;46.60;;;29.80;;
76597;SDS011;65486;53.144;18.134;2024-02-26T10:59:30;43.90;;;28.20;;
76597;SDS011;65486;53.144;18.134;2024-02-26T11:02:02;51.20;;;30.60;;
76597;SDS011;65486;53.144;18.134;2024-02-26T11:04:29;47.60;;;29.80;;
76597;SDS011;65486;53.144;18.134;2024-02-26T11:06:57;56.30;;;32.00;;
76597;SDS011;65486;53.144;18.134;2024-02-26T11:09:24;52.40;;;32.30;;
76597;SDS011;65486;53.144;18.134;2024-02-26T11:11:54;50.90;;;31.50;;
76597;SDS011;65486;53.144;18.134;2024-02-26T11:14:24;46.40;;;28.80;;
76597;SDS011;65486;53.144;18.134;2024-02-26T11:16:52;46.10;;;26.70;;
76597;SDS011;65486;53.144;18.134;2024-02-26T11:19:22;54.50;;;29.90;;
76597;SDS011;65486;53.144;18.134;2024-02-26T11:21:52;54.10;;;31.20;;
76597;SDS011;65486;53.144;18.134;2024-02-26T11:24:21;46.80;;;26.70;;
76597;SDS011;65486;53.144;18.134;2024-02-26T11:26:52;53.10;;;29.20;;
76597;SDS011;65486;53.144;18.134;2024-02-26T11:29:27;51.50;;;27.50;;
76597;SDS011;65486;53.144;18.134;2024-02-26T11:32:10;50.20;;;28.10;;
76597;SDS011;65486;53.144;18.134;2024-02-26T11:34:38;44.00;;;25.10;;
76597;SDS011;65486;53.144;18.134;2024-02-26T11:37:13;49.20;;;26.80;;
76597;SDS011;65486;53.144;18.134;2024-02-26T11:39:41;46.50;;;25.50;;
76597;SDS011;65486;53.144;18.134;2024-02-26T11:42:08;45.60;;;25.70;;
76597;SDS011;65486;53.144;18.134;2024-02-26T11:44:40;45.90;;;25.00;;
76597;SDS011;65486;53.144;18.134;2024-02-26T11:47:18;43.30;;;24.70;;
76597;SDS011;65486;53.144;18.134;2024-02-26T11:49:48;45.80;;;25.70;;
76597;SDS011;65486;53.144;18.134;2024-02-26T11:52:15;46.60;;;25.20;;
76597;SDS011;65486;53.144;18.134;2024-02-26T11:54:49;41.80;;;21.70;;
76597;SDS011;65486;53.144;18.134;2024-02-26T11:57:37;54.30;;;25.20;;
76597;SDS011;65486;53.144;18.134;2024-02-26T12:00:15;43.80;;;24.00;;
76597;SDS011;65486;53.144;18.134;2024-02-26T12:02:55;40.30;;;21.90;;
76597;SDS011;65486;53.144;18.134;2024-02-26T12:05:33;39.20;;;22.00;;
76597;SDS011;65486;53.144;18.134;2024-02-26T12:08:04;44.80;;;25.00;;
76597;SDS011;65486;53.144;18.134;2024-02-26T12:10:34;41.20;;;23.50;;
76597;SDS011;65486;53.144;18.134;2024-02-26T12:13:10;45.10;;;25.10;;
76597;SDS011;65486;53.144;18.134;2024-02-26T12:15:42;40.10;;;22.50;;
76597;SDS011;65486;53.144;18.134;2024-02-26T12:18:17;32.50;;;19.10;;
76597;SDS011;65486;53.144;18.134;2024-02-26T12:20:45;43.00;;;21.40;;
76597;SDS011;65486;53.144;18.134;2024-02-26T12:23:16;44.10;;;24.40;;
76597;SDS011;65486;53.144;18.134;2024-02-26T12:25:46;45.40;;;24.90;;
76597;SDS011;65486;53.144;18.134;2024-02-26T12:28:15;39.30;;;20.90;;
76597;SDS011;65486;53.144;18.134;2024-02-26T12:30:43;34.40;;;17.70;;
76597;SDS011;65486;53.144;18.134;2024-02-26T12:33:10;32.30;;;18.50;;
76597;SDS011;65486;53.144;18.134;2024-02-26T12:35:38;31.20;;;17.90;;
76597;SDS011;65486;53.144;18.134;2024-02-26T12:38:05;36.10;;;18.70;;
76597;SDS011;65486;53.144;18.134;2024-02-26T12:40:31;29.00;;;15.60;;
76597;SDS011;65486;53.144;18.134;2024-02-26T12:42:58;40.30;;;22.00;;
76597;SDS011;65486;53.144;18.134;2024-02-26T12:45:28;32.20;;;17.60;;
76597;SDS011;65486;53.144;18.134;2024-02-26T12:47:57;32.20;;;18.20;;
76597;SDS011;65486;53.144;18.134;2024-02-26T12:50:27;34.10;;;19.30;;
76597;SDS011;65486;53.144;18.134;2024-02-26T12:52:56;26.20;;;14.10;;
76597;SDS011;65486;53.144;18.134;2024-02-26T12:55:23;29.70;;;17.30;;
76597;SDS011;65486;53.144;18.134;2024-02-26T12:57:49;32.80;;;18.80;;
76597;SDS011;65486;53.144;18.134;2024-02-26T13:00:26;34.70;;;18.80;;
76597;SDS011;65486;53.144;18.134;2024-02-26T13:02:57;39.10;;;21.90;;
76597;SDS011;65486;53.144;18.134;2024-02-26T13:05:27;38.20;;;21.30;;
76597;SDS011;65486;53.144;18.134;2024-02-26T13:07:54;33.40;;;18.70;;
76597;SDS011;65486;53.144;18.134;2024-02-26T13:10:24;32.40;;;18.80;;
76597;SDS011;65486;53.144;18.134;2024-02-26T13:12:54;33.90;;;20.10;;
76597;SDS011;65486;53.144;18.134;2024-02-26T13:15:21;34.20;;;19.40;;
76597;SDS011;65486;53.144;18.134;2024-02-26T13:17:49;30.50;;;16.70;;
76597;SDS011;65486;53.144;18.134;2024-02-26T13:20:28;30.00;;;17.40;;
76597;SDS011;65486;53.144;18.134;2024-02-26T13:23:03;28.70;;;15.30;;
76597;SDS011;65486;53.144;18.134;2024-02-26T13:25:32;30.90;;;17.20;;
76597;SDS011;65486;53.144;18.134;2024-02-26T13:28:09;30.30;;;15.70;;
76597;SDS011;65486;53.144;18.134;2024-02-26T13:30:40;32.00;;;16.50;;
76597;SDS011;65486;53.144;18.134;2024-02-26T13:33:09;34.20;;;19.90;;
76597;SDS011;65486;53.144;18.134;2024-02-26T13:35:37;31.70;;;17.90;;
76597;SDS011;65486;53.144;18.134;2024-02-26T13:38:07;33.60;;;18.40;;
76597;SDS011;65486;53.144;18.134;2024-02-26T13:40:42;31.90;;;17.70;;
76597;SDS011;65486;53.144;18.134;2024-02-26T13:43:08;32.70;;;19.30;;
76597;SDS011;65486;53.144;18.134;2024-02-26T13:45:36;31.20;;;17.50;;
76597;SDS011;65486;53.144;18.134;2024-02-26T13:48:09;29.20;;;16.50;;
76597;SDS011;65486;53.144;18.134;2024-02-26T13:50:38;25.90;;;14.10;;
76597;SDS011;65486;53.144;18.134;2024-02-26T13:53:06;28.60;;;16.50;;
76597;SDS011;65486;53.144;18.134;2024-02-26T13:55:35;31.10;;;16.80;;
76597;SDS011;65486;53.144;18.134;2024-02-26T13:58:11;30.00;;;16.50;;
76597;SDS011;65486;53.144;18.134;2024-02-26T14:00:41;29.00;;;15.50;;
76597;SDS011;65486;53.144;18.134;2024-02-26T14:03:11;31.10;;;17.50;;
76597;SDS011;65486;53.144;18.134;2024-02-26T14:05:39;34.50;;;19.00;;
76597;SDS011;65486;53.144;18.134;2024-02-26T14:08:08;33.10;;;18.90;;
76597;SDS011;65486;53.144;18.134;2024-02-26T14:10:38;30.60;;;16.50;;
76597;SDS011;65486;53.144;18.134;2024-02-26T14:13:06;31.30;;;17.70;;
76597;SDS011;65486;53.144;18.134;2024-02-26T14:15:35;25.00;;;14.10;;
76597;SDS011;65486;53.144;18.134;2024-02-26T14:18:04;21.90;;;12.90;;